createdAt,value
2023-07-29T00:00:57.259Z,18.26
2023-07-29T00:03:25.645Z,18.23
2023-07-29T00:05:54.675Z,18.18
2023-07-29T00:08:22.961Z,18.26
2023-07-29T00:10:51.216Z,18.19
2023-07-29T00:13:22.244Z,18.19
2023-07-29T00:15:50.964Z,18.16
2023-07-29T00:18:20.424Z,17.96
2023-07-29T00:20:48.628Z,18.04
2023-07-29T00:23:16.699Z,17.34
2023-07-29T00:25:44.886Z,17.76
2023-07-29T00:28:14.316Z,18.05
2023-07-29T00:30:42.710Z,18.17
2023-07-29T00:33:10.986Z,18.06
2023-07-29T00:35:41.778Z,18.07
2023-07-29T00:38:10.162Z,18.22
2023-07-29T00:40:38.552Z,18.28
2023-07-29T00:43:06.949Z,18.19
2023-07-29T00:45:38.164Z,18.12
2023-07-29T00:48:07.090Z,17.99
2023-07-29T00:50:35.642Z,17.43
2023-07-29T00:53:05.546Z,17.96
2023-07-29T00:55:35.373Z,17.95
2023-07-29T00:58:03.963Z,17.84
2023-07-29T01:00:35.302Z,17.82
2023-07-29T01:03:07.075Z,17.62
2023-07-29T01:05:42.312Z,17.37
2023-07-29T01:08:21.347Z,17.80
2023-07-29T01:11:11.728Z,17.86
2023-07-29T01:13:46.761Z,17.98
2023-07-29T01:16:21.622Z,18.07
2023-07-29T01:18:51.139Z,18.08
2023-07-29T01:21:19.693Z,17.91
2023-07-29T01:23:49.498Z,18.26
2023-07-29T01:26:17.785Z,17.78
2023-07-29T01:28:46.093Z,18.21
2023-07-29T01:31:19.008Z,17.71
2023-07-29T01:33:55.840Z,18.02
2023-07-29T01:36:27.999Z,18.17
2023-07-29T01:38:59.963Z,18.29
2023-07-29T01:41:29.260Z,18.34
2023-07-29T01:43:59.776Z,18.36
2023-07-29T01:46:28.291Z,18.36
2023-07-29T01:48:56.540Z,18.40
2023-07-29T01:51:24.629Z,18.33
2023-07-29T01:53:52.897Z,18.23
2023-07-29T01:56:22.703Z,18.40
2023-07-29T01:58:55.502Z,18.23
2023-07-29T02:01:24.009Z,18.39
2023-07-29T02:03:56.465Z,18.29
2023-07-29T02:06:26.152Z,18.33
2023-07-29T02:08:56.171Z,18.35
2023-07-29T02:11:28.892Z,18.40
2023-07-29T02:13:58.486Z,18.38
2023-07-29T02:16:27.085Z,18.40
2023-07-29T02:18:56.500Z,18.24
2023-07-29T02:21:25.241Z,18.42
2023-07-29T02:23:53.827Z,18.48
2023-07-29T02:26:22.306Z,18.47
2023-07-29T02:28:51.921Z,17.62
2023-07-29T02:31:22.697Z,18.50
2023-07-29T02:33:51.690Z,18.46
2023-07-29T02:36:21.376Z,18.44
2023-07-29T02:38:49.937Z,18.53
2023-07-29T02:41:18.221Z,18.50
2023-07-29T02:43:50.301Z,18.55
2023-07-29T02:46:20.361Z,18.53
2023-07-29T02:48:48.593Z,18.60
2023-07-29T02:51:16.748Z,18.62
2023-07-29T02:53:44.831Z,18.57
2023-07-29T02:56:13.107Z,18.37
2023-07-29T02:58:41.693Z,18.48
2023-07-29T03:01:10.545Z,18.52
2023-07-29T03:03:42.055Z,18.55
2023-07-29T03:06:12.476Z,18.51
2023-07-29T03:08:40.637Z,18.57
2023-07-29T03:11:10.346Z,18.62
2023-07-29T03:13:38.936Z,18.70
2023-07-29T03:16:08.489Z,18.65
2023-07-29T03:18:37.637Z,18.62
2023-07-29T03:21:07.482Z,18.49
2023-07-29T03:23:36.435Z,18.59
2023-07-29T03:26:11.561Z,18.58
2023-07-29T03:28:41.489Z,18.57
2023-07-29T03:31:10.240Z,18.61
2023-07-29T03:33:39.081Z,18.56
2023-07-29T03:36:08.998Z,18.53
2023-07-29T03:38:41.159Z,18.30
2023-07-29T03:41:10.815Z,18.45
2023-07-29T03:43:39.145Z,18.38
2023-07-29T03:46:10.778Z,18.41
2023-07-29T03:48:41.528Z,18.42
2023-07-29T03:51:11.349Z,18.48
2023-07-29T03:53:39.510Z,18.50
2023-07-29T03:56:07.927Z,18.63
2023-07-29T03:58:36.188Z,18.56
2023-07-29T04:01:05.717Z,18.55
2023-07-29T04:03:36.308Z,18.52
2023-07-29T04:06:05.002Z,18.45
2023-07-29T04:08:34.604Z,18.51
2023-07-29T04:11:02.989Z,18.49
2023-07-29T04:13:31.477Z,18.47
2023-07-29T04:15:59.778Z,18.43
2023-07-29T04:18:28.057Z,18.13
2023-07-29T04:20:56.305Z,18.52
2023-07-29T04:23:24.447Z,17.64
2023-07-29T04:25:54.126Z,18.57
2023-07-29T04:28:22.416Z,18.57
2023-07-29T04:30:51.055Z,18.60
2023-07-29T04:33:19.226Z,18.71
2023-07-29T04:35:47.801Z,18.71
2023-07-29T04:38:16.500Z,18.73
2023-07-29T04:40:44.701Z,18.67
2023-07-29T04:43:14.292Z,18.48
2023-07-29T04:45:45.704Z,18.28
2023-07-29T04:48:14.376Z,18.70
2023-07-29T04:50:42.590Z,18.77
2023-07-29T04:53:10.796Z,18.79
2023-07-29T04:55:39.145Z,18.80
2023-07-29T04:58:07.450Z,18.79
2023-07-29T05:00:37.234Z,18.71
2023-07-29T05:03:05.368Z,18.85
2023-07-29T05:05:33.485Z,18.84
2023-07-29T05:08:02.278Z,18.81
2023-07-29T05:10:30.683Z,18.74
2023-07-29T05:12:59.370Z,18.66
2023-07-29T05:15:27.757Z,18.60
2023-07-29T05:17:57.691Z,18.64
2023-07-29T05:20:26.224Z,18.44
2023-07-29T05:22:54.801Z,18.43
2023-07-29T05:25:23.099Z,18.53
2023-07-29T05:27:51.476Z,18.69
2023-07-29T05:30:19.871Z,18.39
2023-07-29T05:32:48.333Z,18.60
2023-07-29T05:35:18.369Z,18.76
2023-07-29T05:37:46.561Z,18.77
2023-07-29T05:40:14.817Z,18.53
2023-07-29T05:42:43.789Z,18.75
2023-07-29T05:45:12.890Z,18.62
2023-07-29T05:47:41.203Z,18.73
2023-07-29T05:50:10.675Z,18.51
2023-07-29T05:52:40.176Z,18.32
2023-07-29T05:55:09.694Z,18.73
2023-07-29T05:57:37.866Z,18.79
2023-07-29T06:00:10.138Z,18.24
2023-07-29T06:02:44.424Z,18.36
2023-07-29T06:05:17.648Z,18.76
2023-07-29T06:07:48.778Z,18.76
2023-07-29T06:10:19.785Z,18.87
2023-07-29T06:12:48.415Z,18.88
2023-07-29T06:15:17.122Z,18.93
2023-07-29T06:17:45.490Z,18.70
2023-07-29T06:20:14.064Z,18.99
2023-07-29T06:22:43.608Z,19.26
2023-07-29T06:25:13.303Z,19.30
2023-07-29T06:27:41.556Z,19.44
2023-07-29T06:30:10.590Z,19.51
2023-07-29T06:32:38.889Z,18.85
2023-07-29T06:35:08.031Z,19.52
2023-07-29T06:37:36.102Z,19.71
2023-07-29T06:40:04.602Z,19.77
2023-07-29T06:42:34.196Z,19.68
2023-07-29T06:45:02.376Z,19.67
2023-07-29T06:47:30.568Z,19.63
2023-07-29T06:49:58.823Z,19.72
2023-07-29T06:52:27.105Z,19.58
2023-07-29T06:54:55.363Z,19.12
2023-07-29T06:57:23.745Z,19.75
2023-07-29T06:59:53.268Z,19.75
2023-07-29T07:02:21.760Z,19.68
2023-07-29T07:04:50.143Z,19.88
2023-07-29T07:07:18.507Z,20.01
2023-07-29T07:09:46.680Z,19.95
2023-07-29T07:12:14.972Z,20.07
2023-07-29T07:14:43.549Z,20.15
2023-07-29T07:17:13.814Z,20.09
2023-07-29T07:19:42.249Z,20.11
2023-07-29T07:22:12.056Z,20.26
2023-07-29T07:24:40.669Z,20.17
2023-07-29T07:27:09.244Z,20.43
2023-07-29T07:29:37.818Z,20.45
2023-07-29T07:32:06.885Z,20.40
2023-07-29T07:34:36.925Z,20.11
2023-07-29T07:37:05.731Z,20.23
2023-07-29T07:39:34.187Z,20.20
2023-07-29T07:42:02.381Z,20.26
2023-07-29T07:44:30.857Z,20.19
2023-07-29T07:46:59.364Z,20.28
2023-07-29T07:49:27.624Z,20.35
2023-07-29T07:51:57.322Z,20.38
2023-07-29T07:54:25.705Z,20.45
2023-07-29T07:56:53.890Z,20.38
2023-07-29T07:59:21.892Z,20.36
2023-07-29T08:01:49.840Z,20.46
2023-07-29T08:04:17.810Z,20.32
2023-07-29T08:06:45.834Z,20.42
2023-07-29T08:09:16.063Z,19.80
2023-07-29T08:11:43.771Z,20.62
2023-07-29T08:14:11.680Z,20.53
2023-07-29T08:16:39.819Z,20.43
2023-07-29T08:19:08.232Z,20.23
2023-07-29T08:21:36.113Z,20.56
2023-07-29T08:24:04.571Z,20.58
2023-07-29T08:26:33.986Z,20.57
2023-07-29T08:29:01.888Z,20.55
2023-07-29T08:31:29.854Z,20.29
2023-07-29T08:33:58.089Z,20.53
2023-07-29T08:36:26.424Z,20.82
2023-07-29T08:38:54.995Z,20.89
2023-07-29T08:41:28.291Z,21.05
2023-07-29T08:44:04.754Z,21.14
2023-07-29T08:46:33.277Z,21.14
2023-07-29T08:49:02.870Z,21.09
2023-07-29T08:51:33.689Z,21.10
2023-07-29T08:54:02.598Z,21.51
2023-07-29T08:56:31.617Z,21.59
2023-07-29T08:59:03.433Z,21.50
2023-07-29T09:01:32.196Z,21.39
2023-07-29T09:04:01.010Z,21.40
2023-07-29T09:06:29.798Z,21.33
2023-07-29T09:08:58.141Z,21.02
2023-07-29T09:11:26.698Z,21.49
2023-07-29T09:13:55.118Z,21.32
2023-07-29T09:16:24.758Z,21.36
2023-07-29T09:18:53.395Z,21.56
2023-07-29T09:21:25.992Z,20.96
2023-07-29T09:23:54.306Z,22.04
2023-07-29T09:26:25.855Z,22.25
2023-07-29T09:28:56.284Z,22.18
2023-07-29T09:31:27.521Z,22.67
2023-07-29T09:34:00.321Z,23.16
2023-07-29T09:36:30.953Z,23.41
2023-07-29T09:39:00.572Z,23.58
2023-07-29T09:41:29.740Z,22.77
2023-07-29T09:43:59.964Z,22.96
2023-07-29T09:46:35.565Z,22.50
2023-07-29T09:49:05.833Z,22.41
2023-07-29T09:51:41.387Z,22.52
2023-07-29T09:54:11.194Z,22.23
2023-07-29T09:56:43.795Z,22.18
2023-07-29T09:59:12.295Z,22.63
2023-07-29T10:01:42.463Z,21.92
2023-07-29T10:04:13.550Z,21.99
2023-07-29T10:06:43.748Z,22.15
2023-07-29T10:09:14.126Z,22.26
2023-07-29T10:11:44.203Z,22.60
2023-07-29T10:14:12.581Z,23.02
2023-07-29T10:16:43.792Z,22.88
2023-07-29T10:19:14.147Z,22.55
2023-07-29T10:21:46.228Z,22.69
2023-07-29T10:24:19.433Z,22.49
2023-07-29T10:26:49.023Z,22.76
2023-07-29T10:29:20.411Z,22.76
2023-07-29T10:31:51.023Z,22.67
2023-07-29T10:34:19.683Z,22.22
2023-07-29T10:36:49.395Z,22.80
2023-07-29T10:39:17.563Z,22.77
2023-07-29T10:41:59.380Z,22.44
2023-07-29T10:44:50.881Z,22.18
2023-07-29T10:47:22.494Z,22.35
2023-07-29T10:49:54.532Z,21.72
2023-07-29T10:52:41.628Z,22.42
2023-07-29T10:55:27.225Z,22.80
2023-07-29T10:58:07.983Z,22.72
2023-07-29T11:00:36.484Z,23.20
2023-07-29T11:03:09.158Z,23.08
2023-07-29T11:05:49.602Z,23.38
2023-07-29T11:08:29.038Z,23.39
2023-07-29T11:11:06.044Z,23.49
2023-07-29T11:13:36.149Z,23.59
2023-07-29T11:16:04.725Z,23.76
2023-07-29T11:18:35.802Z,23.25
2023-07-29T11:21:05.651Z,23.82
2023-07-29T11:23:35.952Z,23.82
2023-07-29T11:26:05.866Z,23.82
2023-07-29T11:28:40.902Z,24.04
2023-07-29T11:31:09.181Z,23.87
2023-07-29T11:33:41.920Z,23.80
2023-07-29T11:36:20.537Z,23.20
2023-07-29T11:38:48.740Z,23.60
2023-07-29T11:41:23.353Z,23.70
2023-07-29T11:43:51.519Z,23.71
2023-07-29T11:46:24.037Z,23.81
2023-07-29T11:48:56.412Z,23.67
2023-07-29T11:51:24.754Z,23.82
2023-07-29T11:53:54.246Z,23.76
2023-07-29T11:56:22.630Z,23.96
2023-07-29T11:58:52.029Z,23.30
2023-07-29T12:01:20.929Z,23.72
2023-07-29T12:03:49.952Z,23.27
2023-07-29T12:06:19.958Z,23.92
2023-07-29T12:08:48.344Z,24.08
2023-07-29T12:11:17.423Z,23.78
2023-07-29T12:13:46.612Z,24.21
2023-07-29T12:16:19.681Z,24.31
2023-07-29T12:18:50.135Z,24.34
2023-07-29T12:21:21.400Z,23.96
2023-07-29T12:23:49.613Z,24.05
2023-07-29T12:26:17.944Z,24.28
2023-07-29T12:28:48.886Z,23.84
2023-07-29T12:31:17.794Z,24.28
2023-07-29T12:33:46.140Z,24.17
2023-07-29T12:36:14.549Z,24.34
2023-07-29T12:38:47.436Z,23.78
2023-07-29T12:41:15.886Z,23.38
2023-07-29T12:43:44.330Z,24.08
2023-07-29T12:46:12.689Z,23.82
2023-07-29T12:48:40.934Z,24.24
2023-07-29T12:51:09.414Z,24.29
2023-07-29T12:53:37.898Z,24.07
2023-07-29T12:56:08.742Z,23.93
2023-07-29T12:58:37.106Z,23.88
2023-07-29T13:01:05.375Z,23.85
2023-07-29T13:03:33.774Z,23.73
2023-07-29T13:06:02.145Z,23.75
2023-07-29T13:08:32.800Z,24.05
2023-07-29T13:11:01.293Z,24.08
2023-07-29T13:13:30.869Z,24.13
2023-07-29T13:16:02.143Z,24.37
2023-07-29T13:18:31.235Z,24.53
2023-07-29T13:20:59.799Z,24.38
2023-07-29T13:23:29.302Z,24.87
2023-07-29T13:25:57.893Z,24.83
2023-07-29T13:28:26.410Z,24.70
2023-07-29T13:30:56.594Z,24.50
2023-07-29T13:33:24.863Z,24.35
2023-07-29T13:35:52.949Z,24.24
2023-07-29T13:38:21.636Z,24.16
2023-07-29T13:40:52.376Z,24.09
2023-07-29T13:43:20.643Z,23.61
2023-07-29T13:45:50.759Z,23.83
2023-07-29T13:48:20.485Z,23.98
2023-07-29T13:50:48.839Z,24.02
2023-07-29T13:53:17.030Z,23.81
2023-07-29T13:55:45.301Z,24.12
2023-07-29T13:58:13.902Z,23.76
2023-07-29T14:00:42.063Z,23.23
2023-07-29T14:03:10.282Z,23.50
2023-07-29T14:05:39.944Z,23.25
2023-07-29T14:08:08.629Z,23.25
2023-07-29T14:10:37.235Z,22.68
2023-07-29T14:13:06.026Z,23.60
2023-07-29T14:15:34.949Z,23.56
2023-07-29T14:18:03.803Z,23.98
2023-07-29T14:20:31.981Z,23.91
2023-07-29T14:23:02.181Z,23.99
2023-07-29T14:25:30.895Z,24.17
2023-07-29T14:27:59.158Z,23.63
2023-07-29T14:30:27.541Z,23.40
2023-07-29T14:32:55.874Z,23.56
2023-07-29T14:35:24.094Z,23.60
2023-07-29T14:37:52.473Z,23.48
2023-07-29T14:40:22.172Z,23.34
2023-07-29T14:42:50.242Z,23.03
2023-07-29T14:45:18.848Z,22.64
2023-07-29T14:47:47.258Z,22.78
2023-07-29T14:50:16.002Z,22.76
2023-07-29T14:52:44.082Z,21.86
2023-07-29T14:55:12.280Z,22.60
2023-07-29T14:57:42.979Z,22.59
2023-07-29T15:00:12.390Z,22.46
2023-07-29T15:02:40.612Z,22.49
2023-07-29T15:05:09.987Z,22.20
2023-07-29T15:07:38.155Z,22.42
2023-07-29T15:10:07.235Z,22.62
2023-07-29T15:12:35.624Z,22.60
2023-07-29T15:15:06.472Z,22.44
2023-07-29T15:17:34.675Z,22.27
2023-07-29T15:20:03.833Z,22.02
2023-07-29T15:22:32.726Z,21.85
2023-07-29T15:25:01.509Z,22.11
2023-07-29T15:27:30.710Z,22.11
2023-07-29T15:29:59.087Z,22.19
2023-07-29T15:32:29.237Z,22.09
2023-07-29T15:34:57.398Z,22.30
2023-07-29T15:37:27.499Z,22.27
2023-07-29T15:39:55.369Z,22.39
2023-07-29T15:42:23.651Z,22.42
2023-07-29T15:44:51.514Z,22.57
2023-07-29T15:47:20.123Z,22.51
2023-07-29T15:49:49.639Z,22.51
2023-07-29T15:52:17.471Z,22.53
2023-07-29T15:54:45.793Z,22.54
2023-07-29T15:57:13.730Z,22.51
2023-07-29T15:59:41.697Z,22.26
2023-07-29T16:02:11.040Z,22.23
2023-07-29T16:04:39.275Z,22.19
2023-07-29T16:07:08.973Z,22.17
2023-07-29T16:09:37.063Z,22.02
2023-07-29T16:12:05.335Z,22.04
2023-07-29T16:14:33.513Z,22.08
2023-07-29T16:17:01.372Z,22.00
2023-07-29T16:19:29.962Z,21.73
2023-07-29T16:21:58.348Z,21.51
2023-07-29T16:24:28.057Z,21.22
2023-07-29T16:26:56.055Z,21.02
2023-07-29T16:29:24.200Z,20.68
2023-07-29T16:31:53.359Z,20.41
2023-07-29T16:34:21.359Z,20.07
2023-07-29T16:36:49.611Z,20.01
2023-07-29T16:39:17.520Z,19.94
2023-07-29T16:44:18.265Z,20.01
2023-07-29T16:46:46.562Z,20.17
2023-07-29T16:49:21.735Z,20.01
2023-07-29T16:51:50.676Z,20.08
2023-07-29T16:54:19.395Z,20.37
2023-07-29T16:56:50.605Z,20.50
2023-07-29T16:59:18.694Z,20.81
2023-07-29T17:01:47.161Z,21.12
2023-07-29T17:04:15.436Z,21.36
2023-07-29T17:06:43.424Z,21.27
2023-07-29T17:09:11.682Z,21.42
2023-07-29T17:11:39.679Z,21.25
2023-07-29T17:14:09.155Z,21.44
2023-07-29T17:16:37.442Z,21.51
2023-07-29T17:19:05.625Z,21.50
2023-07-29T17:21:33.679Z,21.31
2023-07-29T17:24:01.555Z,21.29
2023-07-29T17:26:29.724Z,21.34
2023-07-29T17:28:57.699Z,21.41
2023-07-29T17:31:27.042Z,21.35
2023-07-29T17:33:55.070Z,21.17
2023-07-29T17:36:23.047Z,21.30
2023-07-29T17:38:51.215Z,21.12
2023-07-29T17:41:19.251Z,20.93
2023-07-29T17:43:49.650Z,20.87
2023-07-29T17:46:18.521Z,20.90
2023-07-29T17:48:48.357Z,20.99
2023-07-29T17:51:16.288Z,20.87
2023-07-29T17:53:44.483Z,20.84
2023-07-29T17:56:12.945Z,20.78
2023-07-29T17:58:40.938Z,20.72
2023-07-29T18:01:08.863Z,20.70
2023-07-29T18:03:37.246Z,20.52
2023-07-29T18:06:13.034Z,20.36
2023-07-29T18:08:40.987Z,20.24
2023-07-29T18:11:09.164Z,20.10
2023-07-29T18:13:37.437Z,20.10
2023-07-29T18:16:06.104Z,19.94
2023-07-29T18:18:34.139Z,19.96
2023-07-29T18:21:02.382Z,19.84
2023-07-29T18:23:31.895Z,19.69
2023-07-29T18:25:59.952Z,19.61
2023-07-29T18:28:28.383Z,19.47
2023-07-29T18:30:56.967Z,19.40
2023-07-29T18:33:25.004Z,19.29
2023-07-29T18:35:53.079Z,19.37
2023-07-29T18:38:21.439Z,19.24
2023-07-29T18:40:50.858Z,19.11
2023-07-29T18:43:18.926Z,19.07
2023-07-29T18:45:47.098Z,18.87
2023-07-29T18:48:15.274Z,18.85
2023-07-29T18:50:43.173Z,18.86
2023-07-29T18:53:11.124Z,18.84
2023-07-29T18:55:41.101Z,18.78
2023-07-29T18:58:10.622Z,18.69
2023-07-29T19:00:39.017Z,18.61
2023-07-29T19:03:07.201Z,18.56
2023-07-29T19:05:35.493Z,18.50
2023-07-29T19:08:04.267Z,18.64
2023-07-29T19:10:32.256Z,18.55
2023-07-29T19:13:00.208Z,18.47
2023-07-29T19:15:29.702Z,18.45
2023-07-29T19:17:59.001Z,18.51
2023-07-29T19:20:27.793Z,18.39
2023-07-29T19:22:56.285Z,18.32
2023-07-29T19:25:24.350Z,18.17
2023-07-29T19:27:53.382Z,18.18
2023-07-29T19:30:21.365Z,18.03
2023-07-29T19:32:51.486Z,18.16
2023-07-29T19:35:19.626Z,18.06
2023-07-29T19:37:47.600Z,17.95
2023-07-29T19:40:15.983Z,17.89
2023-07-29T19:42:44.020Z,17.75
2023-07-29T19:45:12.131Z,17.69
2023-07-29T19:47:40.296Z,17.72
2023-07-29T19:50:11.836Z,17.73
2023-07-29T19:52:40.104Z,17.64
2023-07-29T19:55:08.707Z,17.72
2023-07-29T19:57:36.656Z,17.81
2023-07-29T20:00:05.549Z,17.79
2023-07-29T20:02:34.065Z,17.87
2023-07-29T20:05:02.324Z,17.72
2023-07-29T20:07:32.742Z,17.74
2023-07-29T20:10:00.748Z,17.62
2023-07-29T20:12:28.778Z,17.74
2023-07-29T20:15:01.444Z,17.67
2023-07-29T20:17:29.692Z,17.53
2023-07-29T20:19:58.014Z,17.47
2023-07-29T20:22:25.979Z,17.47
2023-07-29T20:24:55.412Z,17.48
2023-07-29T20:27:23.778Z,17.35
2023-07-29T20:29:51.963Z,17.38
2023-07-29T20:32:19.688Z,17.36
2023-07-29T20:34:47.457Z,17.27
2023-07-29T20:37:15.182Z,17.21
2023-07-29T20:39:43.237Z,17.31
2023-07-29T20:42:12.320Z,17.24
2023-07-29T20:44:40.453Z,17.16
2023-07-29T20:47:09.036Z,17.21
2023-07-29T20:49:37.102Z,17.22
2023-07-29T20:52:05.166Z,17.25
2023-07-29T20:54:32.952Z,17.25
2023-07-29T20:57:00.804Z,17.26
2023-07-29T20:59:30.047Z,17.39
2023-07-29T21:01:57.979Z,17.46
2023-07-29T21:04:25.950Z,17.45
2023-07-29T21:06:55.056Z,17.37
2023-07-29T21:09:23.782Z,17.32
2023-07-29T21:11:52.362Z,17.29
2023-07-29T21:14:20.630Z,17.32
2023-07-29T21:16:49.913Z,17.30
2023-07-29T21:19:18.247Z,17.33
2023-07-29T21:21:47.022Z,17.36
2023-07-29T21:24:15.098Z,17.37
2023-07-29T21:26:43.055Z,17.47
2023-07-29T21:29:11.115Z,17.44
2023-07-29T21:31:39.221Z,17.21
2023-07-29T21:34:08.731Z,16.99
2023-07-29T21:36:36.427Z,16.95
2023-07-29T21:39:04.559Z,16.93
2023-07-29T21:41:33.529Z,16.90
2023-07-29T21:44:01.626Z,16.89
2023-07-29T21:46:29.613Z,16.71
2023-07-29T21:48:57.420Z,16.75
2023-07-29T21:51:27.263Z,16.64
2023-07-29T21:53:55.445Z,16.70
2023-07-29T21:56:25.492Z,16.70
2023-07-29T21:58:53.458Z,16.66
2023-07-29T22:01:21.319Z,16.69
2023-07-29T22:03:49.407Z,16.89
2023-07-29T22:06:19.137Z,16.83
2023-07-29T22:08:48.528Z,16.87
2023-07-29T22:11:16.641Z,16.92
2023-07-29T22:13:44.365Z,16.86
2023-07-29T22:16:12.657Z,16.91
2023-07-29T22:18:40.358Z,16.88
2023-07-29T22:21:08.270Z,16.93
2023-07-29T22:23:46.053Z,16.99
2023-07-29T22:26:24.574Z,17.00
2023-07-29T22:28:52.328Z,16.93
2023-07-29T22:31:20.212Z,16.90
2023-07-29T22:33:48.035Z,16.87
2023-07-29T22:36:15.704Z,16.82
2023-07-29T22:38:43.520Z,16.72
2023-07-29T22:41:13.196Z,16.70
2023-07-29T22:43:42.265Z,16.66
2023-07-29T22:46:10.088Z,16.63
2023-07-29T22:48:37.780Z,16.57
2023-07-29T22:51:05.585Z,16.62
2023-07-29T22:53:33.296Z,16.59
2023-07-29T22:56:01.118Z,16.51
2023-07-29T22:58:31.729Z,16.44
2023-07-29T23:01:00.817Z,16.47
2023-07-29T23:03:28.653Z,16.48
2023-07-29T23:05:56.562Z,16.49
2023-07-29T23:08:27.286Z,16.50
2023-07-29T23:10:55.055Z,16.51
2023-07-29T23:13:23.020Z,16.53
2023-07-29T23:15:52.586Z,16.58
2023-07-29T23:18:21.947Z,16.57
2023-07-29T23:20:53.163Z,16.52
2023-07-29T23:23:21.166Z,16.54
2023-07-29T23:25:49.273Z,16.42
2023-07-29T23:28:17.130Z,16.40
2023-07-29T23:30:45.300Z,16.41
2023-07-29T23:33:12.986Z,16.24
2023-07-29T23:35:42.144Z,16.20
2023-07-29T23:38:10.051Z,16.25
2023-07-29T23:40:38.154Z,16.15
2023-07-29T23:43:16.169Z,16.12
2023-07-29T23:45:44.039Z,16.16
2023-07-29T23:48:11.788Z,16.26
2023-07-29T23:50:41.298Z,16.29
2023-07-29T23:53:10.423Z,16.35
2023-07-29T23:55:38.419Z,16.46
2023-07-29T23:58:06.209Z,16.47
